sensor_id;sensor_type;location;lat;lon;timestamp;P1;durP1;ratioP1;P2;durP2;ratioP2
20589;SDS011;10453;50.810;12.540;2023-11-21T00:02:49;5.13;;;2.50;;
20589;SDS011;10453;50.810;12.540;2023-11-21T00:07:06;3.80;;;2.65;;
20589;SDS011;10453;50.810;12.540;2023-11-21T00:11:24;6.68;;;2.70;;
20589;SDS011;10453;50.810;12.540;2023-11-21T00:15:42;5.50;;;2.83;;
20589;SDS011;10453;50.810;12.540;2023-11-21T00:19:59;7.07;;;2.40;;
20589;SDS011;10453;50.810;12.540;2023-11-21T00:24:16;4.85;;;2.20;;
20589;SDS011;10453;50.810;12.540;2023-11-21T00:28:34;3.58;;;2.60;;
20589;SDS011;10453;50.810;12.540;2023-11-21T00:32:51;4.10;;;2.20;;
20589;SDS011;10453;50.810;12.540;2023-11-21T00:37:09;5.10;;;2.20;;
20589;SDS011;10453;50.810;12.540;2023-11-21T00:41:26;4.53;;;2.10;;
20589;SDS011;10453;50.810;12.540;2023-11-21T00:45:44;2.58;;;1.95;;
20589;SDS011;10453;50.810;12.540;2023-11-21T00:50:01;5.38;;;2.35;;
20589;SDS011;10453;50.810;12.540;2023-11-21T00:54:19;5.15;;;2.70;;
20589;SDS011;10453;50.810;12.540;2023-11-21T00:58:36;5.43;;;2.40;;
20589;SDS011;10453;50.810;12.540;2023-11-21T01:02:54;3.22;;;2.00;;
20589;SDS011;10453;50.810;12.540;2023-11-21T01:07:11;6.18;;;2.83;;
20589;SDS011;10453;50.810;12.540;2023-11-21T01:11:30;5.07;;;2.38;;
20589;SDS011;10453;50.810;12.540;2023-11-21T01:15:47;4.13;;;2.45;;
20589;SDS011;10453;50.810;12.540;2023-11-21T01:20:04;4.82;;;2.13;;
20589;SDS011;10453;50.810;12.540;2023-11-21T01:24:28;4.57;;;2.08;;
20589;SDS011;10453;50.810;12.540;2023-11-21T01:28:45;4.40;;;2.00;;
20589;SDS011;10453;50.810;12.540;2023-11-21T01:33:05;4.15;;;1.95;;
20589;SDS011;10453;50.810;12.540;2023-11-21T01:37:23;2.17;;;1.60;;
20589;SDS011;10453;50.810;12.540;2023-11-21T01:41:41;4.82;;;1.98;;
20589;SDS011;10453;50.810;12.540;2023-11-21T01:46:01;4.40;;;1.52;;
20589;SDS011;10453;50.810;12.540;2023-11-21T01:50:19;5.68;;;1.70;;
20589;SDS011;10453;50.810;12.540;2023-11-21T01:54:38;3.20;;;1.58;;
20589;SDS011;10453;50.810;12.540;2023-11-21T02:03:14;4.57;;;1.92;;
20589;SDS011;10453;50.810;12.540;2023-11-21T02:07:32;4.45;;;2.00;;
20589;SDS011;10453;50.810;12.540;2023-11-21T02:11:49;5.40;;;2.30;;
20589;SDS011;10453;50.810;12.540;2023-11-21T02:16:07;3.47;;;1.77;;
20589;SDS011;10453;50.810;12.540;2023-11-21T02:20:25;5.00;;;1.63;;
20589;SDS011;10453;50.810;12.540;2023-11-21T02:24:43;4.10;;;1.50;;
20589;SDS011;10453;50.810;12.540;2023-11-21T02:29:00;4.55;;;1.80;;
20589;SDS011;10453;50.810;12.540;2023-11-21T02:33:17;4.97;;;1.80;;
20589;SDS011;10453;50.810;12.540;2023-11-21T02:37:37;2.40;;;1.40;;
20589;SDS011;10453;50.810;12.540;2023-11-21T02:41:55;2.35;;;1.50;;
20589;SDS011;10453;50.810;12.540;2023-11-21T02:46:15;3.70;;;1.70;;
20589;SDS011;10453;50.810;12.540;2023-11-21T02:50:33;4.60;;;1.85;;
20589;SDS011;10453;50.810;12.540;2023-11-21T02:54:51;4.45;;;1.80;;
20589;SDS011;10453;50.810;12.540;2023-11-21T02:59:10;5.82;;;2.15;;
20589;SDS011;10453;50.810;12.540;2023-11-21T03:03:27;3.25;;;1.80;;
20589;SDS011;10453;50.810;12.540;2023-11-21T03:07:45;4.00;;;2.23;;
20589;SDS011;10453;50.810;12.540;2023-11-21T03:12:03;8.30;;;2.40;;
20589;SDS011;10453;50.810;12.540;2023-11-21T03:16:21;7.47;;;2.30;;
20589;SDS011;10453;50.810;12.540;2023-11-21T03:20:38;5.90;;;2.70;;
20589;SDS011;10453;50.810;12.540;2023-11-21T03:24:55;5.63;;;2.88;;
20589;SDS011;10453;50.810;12.540;2023-11-21T03:29:13;4.38;;;2.00;;
20589;SDS011;10453;50.810;12.540;2023-11-21T03:33:30;3.73;;;1.80;;
20589;SDS011;10453;50.810;12.540;2023-11-21T03:37:48;4.05;;;2.45;;
20589;SDS011;10453;50.810;12.540;2023-11-21T03:42:06;5.53;;;2.72;;
20589;SDS011;10453;50.810;12.540;2023-11-21T03:46:23;5.00;;;2.75;;
20589;SDS011;10453;50.810;12.540;2023-11-21T03:50:40;5.13;;;2.67;;
20589;SDS011;10453;50.810;12.540;2023-11-21T03:54:58;5.30;;;3.00;;
20589;SDS011;10453;50.810;12.540;2023-11-21T03:59:16;8.50;;;2.60;;
20589;SDS011;10453;50.810;12.540;2023-11-21T04:03:34;4.80;;;3.00;;
20589;SDS011;10453;50.810;12.540;2023-11-21T04:07:51;5.90;;;2.90;;
20589;SDS011;10453;50.810;12.540;2023-11-21T04:12:09;5.72;;;3.67;;
20589;SDS011;10453;50.810;12.540;2023-11-21T04:16:26;4.43;;;3.03;;
20589;SDS011;10453;50.810;12.540;2023-11-21T04:20:44;5.68;;;3.17;;
20589;SDS011;10453;50.810;12.540;2023-11-21T04:25:01;6.90;;;2.83;;
20589;SDS011;10453;50.810;12.540;2023-11-21T04:29:19;10.75;;;4.25;;
20589;SDS011;10453;50.810;12.540;2023-11-21T04:33:37;10.57;;;4.27;;
20589;SDS011;10453;50.810;12.540;2023-11-21T04:37:55;9.83;;;4.53;;
20589;SDS011;10453;50.810;12.540;2023-11-21T04:42:14;10.10;;;3.50;;
20589;SDS011;10453;50.810;12.540;2023-11-21T04:46:31;6.72;;;3.53;;
20589;SDS011;10453;50.810;12.540;2023-11-21T04:56:37;13.45;;;3.80;;
20589;SDS011;10453;50.810;12.540;2023-11-21T05:01:24;5.38;;;3.50;;
20589;SDS011;10453;50.810;12.540;2023-11-21T05:05:51;7.18;;;4.20;;
20589;SDS011;10453;50.810;12.540;2023-11-21T05:10:10;6.15;;;3.50;;
20589;SDS011;10453;50.810;12.540;2023-11-21T05:14:29;6.93;;;3.55;;
20589;SDS011;10453;50.810;12.540;2023-11-21T05:23:37;12.27;;;3.85;;
20589;SDS011;10453;50.810;12.540;2023-11-21T05:27:55;5.13;;;3.72;;
20589;SDS011;10453;50.810;12.540;2023-11-21T05:32:16;11.27;;;5.32;;
20589;SDS011;10453;50.810;12.540;2023-11-21T05:41:16;9.98;;;6.20;;
20589;SDS011;10453;50.810;12.540;2023-11-21T05:45:40;10.38;;;4.97;;
20589;SDS011;10453;50.810;12.540;2023-11-21T05:49:57;9.00;;;4.95;;
20589;SDS011;10453;50.810;12.540;2023-11-21T05:54:20;8.55;;;4.88;;
20589;SDS011;10453;50.810;12.540;2023-11-21T05:58:41;11.52;;;5.80;;
20589;SDS011;10453;50.810;12.540;2023-11-21T06:02:59;7.47;;;4.75;;
20589;SDS011;10453;50.810;12.540;2023-11-21T06:07:20;9.32;;;4.85;;
20589;SDS011;10453;50.810;12.540;2023-11-21T06:11:38;13.30;;;5.82;;
20589;SDS011;10453;50.810;12.540;2023-11-21T06:15:59;10.20;;;5.70;;
20589;SDS011;10453;50.810;12.540;2023-11-21T06:25:12;20.80;;;7.25;;
20589;SDS011;10453;50.810;12.540;2023-11-21T06:29:30;10.90;;;5.40;;
20589;SDS011;10453;50.810;12.540;2023-11-21T06:34:17;18.45;;;6.90;;
20589;SDS011;10453;50.810;12.540;2023-11-21T06:38:34;17.13;;;7.13;;
20589;SDS011;10453;50.810;12.540;2023-11-21T06:42:55;21.85;;;9.15;;
20589;SDS011;10453;50.810;12.540;2023-11-21T06:47:15;16.63;;;7.40;;
20589;SDS011;10453;50.810;12.540;2023-11-21T06:51:33;21.60;;;8.20;;
20589;SDS011;10453;50.810;12.540;2023-11-21T06:55:51;17.13;;;7.63;;
20589;SDS011;10453;50.810;12.540;2023-11-21T07:00:09;18.48;;;8.18;;
20589;SDS011;10453;50.810;12.540;2023-11-21T07:04:45;19.92;;;9.02;;
20589;SDS011;10453;50.810;12.540;2023-11-21T07:09:47;17.95;;;8.95;;
20589;SDS011;10453;50.810;12.540;2023-11-21T07:14:05;25.67;;;10.23;;
20589;SDS011;10453;50.810;12.540;2023-11-21T07:18:32;15.35;;;8.20;;
20589;SDS011;10453;50.810;12.540;2023-11-21T07:22:49;18.80;;;9.40;;
20589;SDS011;10453;50.810;12.540;2023-11-21T07:27:07;18.48;;;9.63;;
20589;SDS011;10453;50.810;12.540;2023-11-21T07:31:25;22.77;;;10.95;;
20589;SDS011;10453;50.810;12.540;2023-11-21T07:36:15;21.15;;;11.23;;
20589;SDS011;10453;50.810;12.540;2023-11-21T07:40:36;29.65;;;11.95;;
20589;SDS011;10453;50.810;12.540;2023-11-21T07:45:04;19.15;;;9.50;;
20589;SDS011;10453;50.810;12.540;2023-11-21T07:49:25;19.35;;;9.60;;
20589;SDS011;10453;50.810;12.540;2023-11-21T07:53:44;16.80;;;9.77;;
20589;SDS011;10453;50.810;12.540;2023-11-21T07:58:01;17.33;;;9.50;;
20589;SDS011;10453;50.810;12.540;2023-11-21T08:02:23;13.23;;;8.98;;
20589;SDS011;10453;50.810;12.540;2023-11-21T08:07:22;14.90;;;9.35;;
20589;SDS011;10453;50.810;12.540;2023-11-21T08:11:42;26.05;;;11.70;;
20589;SDS011;10453;50.810;12.540;2023-11-21T08:21:07;25.25;;;13.70;;
20589;SDS011;10453;50.810;12.540;2023-11-21T08:25:27;20.23;;;12.50;;
20589;SDS011;10453;50.810;12.540;2023-11-21T08:29:44;28.83;;;14.82;;
20589;SDS011;10453;50.810;12.540;2023-11-21T08:34:28;26.92;;;14.02;;
20589;SDS011;10453;50.810;12.540;2023-11-21T08:38:46;24.60;;;12.93;;
20589;SDS011;10453;50.810;12.540;2023-11-21T08:43:06;30.05;;;13.38;;
20589;SDS011;10453;50.810;12.540;2023-11-21T08:47:28;33.42;;;14.65;;
20589;SDS011;10453;50.810;12.540;2023-11-21T08:52:23;28.07;;;13.27;;
20589;SDS011;10453;50.810;12.540;2023-11-21T08:57:14;121.38;;;69.07;;
20589;SDS011;10453;50.810;12.540;2023-11-21T09:01:52;41.40;;;23.17;;
20589;SDS011;10453;50.810;12.540;2023-11-21T09:16:57;33.35;;;15.23;;
20589;SDS011;10453;50.810;12.540;2023-11-21T09:21:41;41.67;;;16.73;;
20589;SDS011;10453;50.810;12.540;2023-11-21T09:31:15;52.33;;;17.13;;
20589;SDS011;10453;50.810;12.540;2023-11-21T09:35:41;50.38;;;22.58;;
20589;SDS011;10453;50.810;12.540;2023-11-21T09:41:13;54.05;;;20.08;;
20589;SDS011;10453;50.810;12.540;2023-11-21T09:46:33;54.25;;;18.08;;
20589;SDS011;10453;50.810;12.540;2023-11-21T09:50:52;57.47;;;33.92;;
20589;SDS011;10453;50.810;12.540;2023-11-21T09:55:21;52.90;;;26.08;;
20589;SDS011;10453;50.810;12.540;2023-11-21T09:59:44;59.17;;;31.02;;
20589;SDS011;10453;50.810;12.540;2023-11-21T10:04:14;45.53;;;20.83;;
20589;SDS011;10453;50.810;12.540;2023-11-21T10:08:57;43.10;;;23.77;;
20589;SDS011;10453;50.810;12.540;2023-11-21T10:14:04;44.20;;;27.40;;
20589;SDS011;10453;50.810;12.540;2023-11-21T10:18:26;50.58;;;23.70;;
20589;SDS011;10453;50.810;12.540;2023-11-21T10:23:45;77.47;;;36.50;;
20589;SDS011;10453;50.810;12.540;2023-11-21T10:32:51;103.82;;;29.80;;
20589;SDS011;10453;50.810;12.540;2023-11-21T10:37:32;121.20;;;31.20;;
20589;SDS011;10453;50.810;12.540;2023-11-21T10:42:08;162.57;;;41.50;;
20589;SDS011;10453;50.810;12.540;2023-11-21T10:47:17;161.25;;;32.60;;
20589;SDS011;10453;50.810;12.540;2023-11-21T10:56:28;186.93;;;32.45;;
20589;SDS011;10453;50.810;12.540;2023-11-21T11:00:56;120.57;;;29.83;;
20589;SDS011;10453;50.810;12.540;2023-11-21T11:05:25;187.13;;;31.67;;
20589;SDS011;10453;50.810;12.540;2023-11-21T11:09:57;130.20;;;26.98;;
20589;SDS011;10453;50.810;12.540;2023-11-21T11:14:31;129.98;;;29.58;;
20589;SDS011;10453;50.810;12.540;2023-11-21T11:18:54;133.88;;;40.58;;
20589;SDS011;10453;50.810;12.540;2023-11-21T11:23:23;78.30;;;29.55;;
20589;SDS011;10453;50.810;12.540;2023-11-21T11:38:03;106.75;;;27.52;;
20589;SDS011;10453;50.810;12.540;2023-11-21T11:43:00;104.13;;;26.83;;
20589;SDS011;10453;50.810;12.540;2023-11-21T11:48:05;158.45;;;36.03;;
20589;SDS011;10453;50.810;12.540;2023-11-21T11:52:55;95.57;;;23.10;;
20589;SDS011;10453;50.810;12.540;2023-11-21T11:58:37;86.72;;;20.17;;
20589;SDS011;10453;50.810;12.540;2023-11-21T12:03:16;43.63;;;16.05;;
20589;SDS011;10453;50.810;12.540;2023-11-21T12:13:30;78.40;;;18.50;;
20589;SDS011;10453;50.810;12.540;2023-11-21T12:18:58;100.75;;;21.65;;
20589;SDS011;10453;50.810;12.540;2023-11-21T12:23:27;56.15;;;18.73;;
20589;SDS011;10453;50.810;12.540;2023-11-21T12:28:00;50.88;;;17.70;;
20589;SDS011;10453;50.810;12.540;2023-11-21T12:33:05;83.53;;;24.77;;
20589;SDS011;10453;50.810;12.540;2023-11-21T12:37:43;81.50;;;35.55;;
20589;SDS011;10453;50.810;12.540;2023-11-21T12:43:16;55.50;;;27.30;;
20589;SDS011;10453;50.810;12.540;2023-11-21T12:57:40;109.28;;;27.27;;
20589;SDS011;10453;50.810;12.540;2023-11-21T13:02:16;63.80;;;19.45;;
20589;SDS011;10453;50.810;12.540;2023-11-21T13:06:54;61.78;;;16.02;;
20589;SDS011;10453;50.810;12.540;2023-11-21T13:11:22;32.60;;;10.98;;
20589;SDS011;10453;50.810;12.540;2023-11-21T13:15:50;43.35;;;12.40;;
20589;SDS011;10453;50.810;12.540;2023-11-21T13:20:09;41.13;;;14.25;;
20589;SDS011;10453;50.810;12.540;2023-11-21T13:24:32;24.00;;;10.02;;
20589;SDS011;10453;50.810;12.540;2023-11-21T13:28:49;40.80;;;12.25;;
20589;SDS011;10453;50.810;12.540;2023-11-21T13:33:07;32.03;;;10.50;;
20589;SDS011;10453;50.810;12.540;2023-11-21T13:37:27;35.42;;;11.52;;
20589;SDS011;10453;50.810;12.540;2023-11-21T13:41:47;14.40;;;7.18;;
20589;SDS011;10453;50.810;12.540;2023-11-21T13:46:11;22.15;;;8.45;;
20589;SDS011;10453;50.810;12.540;2023-11-21T13:50:38;12.38;;;7.20;;
20589;SDS011;10453;50.810;12.540;2023-11-21T13:55:11;13.55;;;7.70;;
20589;SDS011;10453;50.810;12.540;2023-11-21T13:59:32;19.17;;;8.48;;
20589;SDS011;10453;50.810;12.540;2023-11-21T14:03:51;43.47;;;11.60;;
20589;SDS011;10453;50.810;12.540;2023-11-21T14:08:13;13.18;;;6.07;;
20589;SDS011;10453;50.810;12.540;2023-11-21T14:12:33;19.63;;;8.65;;
20589;SDS011;10453;50.810;12.540;2023-11-21T14:16:55;21.60;;;6.85;;
20589;SDS011;10453;50.810;12.540;2023-11-21T14:21:13;17.80;;;7.38;;
20589;SDS011;10453;50.810;12.540;2023-11-21T14:25:34;14.70;;;7.28;;
20589;SDS011;10453;50.810;12.540;2023-11-21T14:29:53;27.58;;;10.30;;
20589;SDS011;10453;50.810;12.540;2023-11-21T14:34:11;19.23;;;9.73;;
20589;SDS011;10453;50.810;12.540;2023-11-21T14:38:29;15.65;;;7.85;;
20589;SDS011;10453;50.810;12.540;2023-11-21T14:42:46;43.10;;;10.50;;
20589;SDS011;10453;50.810;12.540;2023-11-21T14:47:04;15.60;;;7.20;;
20589;SDS011;10453;50.810;12.540;2023-11-21T14:51:29;16.65;;;7.70;;
20589;SDS011;10453;50.810;12.540;2023-11-21T14:56:02;26.73;;;9.30;;
20589;SDS011;10453;50.810;12.540;2023-11-21T15:00:21;19.45;;;8.48;;
20589;SDS011;10453;50.810;12.540;2023-11-21T15:04:50;28.05;;;9.77;;
20589;SDS011;10453;50.810;12.540;2023-11-21T15:09:10;37.70;;;11.25;;
20589;SDS011;10453;50.810;12.540;2023-11-21T15:13:27;29.92;;;11.80;;
20589;SDS011;10453;50.810;12.540;2023-11-21T15:17:46;30.25;;;12.52;;
20589;SDS011;10453;50.810;12.540;2023-11-21T15:22:04;38.25;;;13.38;;
20589;SDS011;10453;50.810;12.540;2023-11-21T15:26:23;28.80;;;12.75;;
20589;SDS011;10453;50.810;12.540;2023-11-21T15:30:44;26.20;;;11.88;;
20589;SDS011;10453;50.810;12.540;2023-11-21T15:35:04;26.95;;;11.93;;
20589;SDS011;10453;50.810;12.540;2023-11-21T15:39:22;73.90;;;16.43;;
20589;SDS011;10453;50.810;12.540;2023-11-21T15:43:42;29.00;;;12.82;;
20589;SDS011;10453;50.810;12.540;2023-11-21T15:48:00;36.43;;;13.17;;
20589;SDS011;10453;50.810;12.540;2023-11-21T15:56:42;31.98;;;14.05;;
20589;SDS011;10453;50.810;12.540;2023-11-21T16:00:59;110.17;;;22.27;;
20589;SDS011;10453;50.810;12.540;2023-11-21T16:05:21;45.60;;;17.75;;
20589;SDS011;10453;50.810;12.540;2023-11-21T16:09:43;44.83;;;17.70;;
20589;SDS011;10453;50.810;12.540;2023-11-21T16:14:01;47.33;;;16.50;;
20589;SDS011;10453;50.810;12.540;2023-11-21T16:18:19;82.72;;;18.90;;
20589;SDS011;10453;50.810;12.540;2023-11-21T16:22:37;23.07;;;13.47;;
20589;SDS011;10453;50.810;12.540;2023-11-21T16:26:55;63.25;;;17.17;;
20589;SDS011;10453;50.810;12.540;2023-11-21T16:31:21;23.90;;;12.15;;
20589;SDS011;10453;50.810;12.540;2023-11-21T16:35:42;24.77;;;11.90;;
20589;SDS011;10453;50.810;12.540;2023-11-21T16:40:01;23.17;;;11.35;;
20589;SDS011;10453;50.810;12.540;2023-11-21T16:44:23;20.55;;;11.10;;
20589;SDS011;10453;50.810;12.540;2023-11-21T16:48:41;18.35;;;11.23;;
20589;SDS011;10453;50.810;12.540;2023-11-21T16:52:59;24.53;;;13.13;;
20589;SDS011;10453;50.810;12.540;2023-11-21T16:57:17;22.35;;;12.85;;
20589;SDS011;10453;50.810;12.540;2023-11-21T17:01:35;21.33;;;11.85;;
20589;SDS011;10453;50.810;12.540;2023-11-21T17:05:53;26.38;;;12.73;;
20589;SDS011;10453;50.810;12.540;2023-11-21T17:10:13;27.98;;;13.70;;
20589;SDS011;10453;50.810;12.540;2023-11-21T17:14:31;27.63;;;12.23;;
20589;SDS011;10453;50.810;12.540;2023-11-21T17:23:08;26.17;;;11.77;;
20589;SDS011;10453;50.810;12.540;2023-11-21T17:27:25;18.70;;;11.03;;
20589;SDS011;10453;50.810;12.540;2023-11-21T17:36:03;18.33;;;10.07;;
20589;SDS011;10453;50.810;12.540;2023-11-21T17:40:24;20.17;;;10.85;;
20589;SDS011;10453;50.810;12.540;2023-11-21T17:44:43;18.92;;;10.75;;
20589;SDS011;10453;50.810;12.540;2023-11-21T17:49:03;19.42;;;11.25;;
20589;SDS011;10453;50.810;12.540;2023-11-21T17:53:21;29.92;;;13.23;;
20589;SDS011;10453;50.810;12.540;2023-11-21T17:57:39;17.85;;;9.90;;
20589;SDS011;10453;50.810;12.540;2023-11-21T18:01:58;20.23;;;8.80;;
20589;SDS011;10453;50.810;12.540;2023-11-21T18:10:34;12.90;;;7.40;;
20589;SDS011;10453;50.810;12.540;2023-11-21T18:14:54;15.57;;;7.72;;
20589;SDS011;10453;50.810;12.540;2023-11-21T18:19:11;14.93;;;8.05;;
20589;SDS011;10453;50.810;12.540;2023-11-21T18:23:29;39.37;;;11.80;;
20589;SDS011;10453;50.810;12.540;2023-11-21T18:27:46;23.20;;;10.50;;
20589;SDS011;10453;50.810;12.540;2023-11-21T18:32:04;30.57;;;12.73;;
20589;SDS011;10453;50.810;12.540;2023-11-21T18:36:26;42.13;;;13.82;;
20589;SDS011;10453;50.810;12.540;2023-11-21T18:40:44;21.70;;;9.57;;
20589;SDS011;10453;50.810;12.540;2023-11-21T18:45:01;26.42;;;12.00;;
20589;SDS011;10453;50.810;12.540;2023-11-21T18:49:19;17.20;;;7.73;;
20589;SDS011;10453;50.810;12.540;2023-11-21T18:53:37;20.90;;;7.88;;
20589;SDS011;10453;50.810;12.540;2023-11-21T18:57:56;18.80;;;7.07;;
20589;SDS011;10453;50.810;12.540;2023-11-21T19:02:15;8.90;;;5.72;;
20589;SDS011;10453;50.810;12.540;2023-11-21T19:06:32;29.70;;;13.53;;
20589;SDS011;10453;50.810;12.540;2023-11-21T19:10:50;39.95;;;14.95;;
20589;SDS011;10453;50.810;12.540;2023-11-21T19:15:07;22.37;;;10.50;;
20589;SDS011;10453;50.810;12.540;2023-11-21T19:19:25;21.97;;;11.53;;
20589;SDS011;10453;50.810;12.540;2023-11-21T19:23:43;27.17;;;11.48;;
20589;SDS011;10453;50.810;12.540;2023-11-21T19:28:01;29.33;;;13.60;;
20589;SDS011;10453;50.810;12.540;2023-11-21T19:32:19;11.80;;;8.18;;
20589;SDS011;10453;50.810;12.540;2023-11-21T19:36:40;13.50;;;8.30;;
20589;SDS011;10453;50.810;12.540;2023-11-21T19:40:58;15.70;;;10.02;;
20589;SDS011;10453;50.810;12.540;2023-11-21T19:45:20;15.05;;;8.57;;
20589;SDS011;10453;50.810;12.540;2023-11-21T19:49:38;13.10;;;8.55;;
20589;SDS011;10453;50.810;12.540;2023-11-21T19:53:56;13.48;;;8.63;;
20589;SDS011;10453;50.810;12.540;2023-11-21T19:58:14;13.18;;;8.63;;
20589;SDS011;10453;50.810;12.540;2023-11-21T20:02:34;15.77;;;8.85;;
20589;SDS011;10453;50.810;12.540;2023-11-21T20:06:53;13.88;;;8.80;;
20589;SDS011;10453;50.810;12.540;2023-11-21T20:11:14;15.50;;;9.40;;
20589;SDS011;10453;50.810;12.540;2023-11-21T20:15:38;18.33;;;10.32;;
20589;SDS011;10453;50.810;12.540;2023-11-21T20:19:56;15.35;;;9.43;;
20589;SDS011;10453;50.810;12.540;2023-11-21T20:24:14;13.88;;;8.90;;
20589;SDS011;10453;50.810;12.540;2023-11-21T20:28:31;35.00;;;12.57;;
20589;SDS011;10453;50.810;12.540;2023-11-21T20:32:49;18.90;;;10.83;;
20589;SDS011;10453;50.810;12.540;2023-11-21T20:37:07;16.70;;;10.13;;
20589;SDS011;10453;50.810;12.540;2023-11-21T20:41:25;58.70;;;15.60;;
20589;SDS011;10453;50.810;12.540;2023-11-21T20:45:45;18.27;;;10.55;;
20589;SDS011;10453;50.810;12.540;2023-11-21T20:50:03;18.92;;;10.85;;
20589;SDS011;10453;50.810;12.540;2023-11-21T20:54:22;18.90;;;10.23;;
20589;SDS011;10453;50.810;12.540;2023-11-21T20:58:39;32.55;;;11.77;;
20589;SDS011;10453;50.810;12.540;2023-11-21T21:03:01;14.98;;;9.43;;
20589;SDS011;10453;50.810;12.540;2023-11-21T21:07:19;14.25;;;8.93;;
20589;SDS011;10453;50.810;12.540;2023-11-21T21:11:37;14.23;;;8.30;;
20589;SDS011;10453;50.810;12.540;2023-11-21T21:15:56;15.40;;;7.95;;
20589;SDS011;10453;50.810;12.540;2023-11-21T21:20:14;10.93;;;6.90;;
20589;SDS011;10453;50.810;12.540;2023-11-21T21:24:33;18.00;;;8.43;;
20589;SDS011;10453;50.810;12.540;2023-11-21T21:33:09;16.42;;;8.93;;
20589;SDS011;10453;50.810;12.540;2023-11-21T21:37:27;11.87;;;6.60;;
20589;SDS011;10453;50.810;12.540;2023-11-21T21:41:46;13.80;;;8.60;;
20589;SDS011;10453;50.810;12.540;2023-11-21T21:46:03;17.43;;;9.73;;
20589;SDS011;10453;50.810;12.540;2023-11-21T21:50:22;14.93;;;9.60;;
20589;SDS011;10453;50.810;12.540;2023-11-21T21:54:42;17.17;;;10.25;;
20589;SDS011;10453;50.810;12.540;2023-11-21T21:59:00;31.23;;;13.52;;
20589;SDS011;10453;50.810;12.540;2023-11-21T22:03:17;14.27;;;9.80;;
20589;SDS011;10453;50.810;12.540;2023-11-21T22:07:35;15.13;;;10.00;;
20589;SDS011;10453;50.810;12.540;2023-11-21T22:11:54;22.98;;;12.57;;
20589;SDS011;10453;50.810;12.540;2023-11-21T22:16:14;35.75;;;14.10;;
20589;SDS011;10453;50.810;12.540;2023-11-21T22:20:32;17.58;;;11.65;;
20589;SDS011;10453;50.810;12.540;2023-11-21T22:24:50;16.73;;;11.40;;
20589;SDS011;10453;50.810;12.540;2023-11-21T22:29:07;24.13;;;12.63;;
20589;SDS011;10453;50.810;12.540;2023-11-21T22:33:27;17.73;;;11.48;;
20589;SDS011;10453;50.810;12.540;2023-11-21T22:37:44;18.50;;;11.60;;
20589;SDS011;10453;50.810;12.540;2023-11-21T22:42:02;20.80;;;13.73;;
20589;SDS011;10453;50.810;12.540;2023-11-21T22:50:38;29.77;;;14.07;;
20589;SDS011;10453;50.810;12.540;2023-11-21T22:54:55;36.27;;;15.07;;
20589;SDS011;10453;50.810;12.540;2023-11-21T22:59:14;23.70;;;13.45;;
20589;SDS011;10453;50.810;12.540;2023-11-21T23:03:33;22.52;;;13.27;;
20589;SDS011;10453;50.810;12.540;2023-11-21T23:07:51;28.23;;;13.77;;
20589;SDS011;10453;50.810;12.540;2023-11-21T23:12:09;34.10;;;15.30;;
20589;SDS011;10453;50.810;12.540;2023-11-21T23:16:26;23.70;;;13.57;;
20589;SDS011;10453;50.810;12.540;2023-11-21T23:20:44;29.37;;;16.07;;
20589;SDS011;10453;50.810;12.540;2023-11-21T23:25:02;31.45;;;16.55;;
20589;SDS011;10453;50.810;12.540;2023-11-21T23:29:23;25.45;;;15.38;;
20589;SDS011;10453;50.810;12.540;2023-11-21T23:33:40;29.92;;;16.05;;
20589;SDS011;10453;50.810;12.540;2023-11-21T23:37:58;34.85;;;16.92;;
20589;SDS011;10453;50.810;12.540;2023-11-21T23:42:16;31.63;;;16.70;;
20589;SDS011;10453;50.810;12.540;2023-11-21T23:46:34;27.05;;;15.40;;
20589;SDS011;10453;50.810;12.540;2023-11-21T23:50:52;29.67;;;17.88;;
20589;SDS011;10453;50.810;12.540;2023-11-21T23:55:10;35.23;;;19.07;;
20589;SDS011;10453;50.810;12.540;2023-11-21T23:59:28;39.63;;;19.20;;
